createdAt,value
2022-10-18T00:02:04.306Z,15.74
2022-10-18T00:04:30.946Z,15.75
2022-10-18T00:06:57.638Z,15.77
2022-10-18T00:09:24.802Z,15.77
2022-10-18T00:11:51.647Z,15.82
2022-10-18T00:14:18.275Z,15.86
2022-10-18T00:16:44.723Z,15.90
2022-10-18T00:19:11.169Z,15.81
2022-10-18T00:21:37.570Z,15.79
2022-10-18T00:24:04.777Z,15.79
2022-10-18T00:26:31.995Z,15.82
2022-10-18T00:29:01.449Z,15.87
2022-10-18T00:31:36.706Z,15.91
2022-10-18T00:34:14.581Z,15.94
2022-10-18T00:36:42.227Z,15.95
2022-10-18T00:39:14.028Z,15.99
2022-10-18T00:41:40.513Z,15.98
2022-10-18T00:44:26.946Z,15.91
2022-10-18T00:46:58.493Z,15.51
2022-10-18T00:49:32.997Z,15.54
2022-10-18T00:52:03.432Z,15.58
2022-10-18T00:54:32.059Z,15.64
2022-10-18T00:56:58.939Z,15.61
2022-10-18T00:59:26.022Z,15.69
2022-10-18T01:01:52.547Z,15.74
2022-10-18T01:04:20.776Z,15.82
2022-10-18T01:06:53.480Z,15.88
2022-10-18T01:09:32.657Z,15.82
2022-10-18T01:12:16.224Z,15.81
2022-10-18T01:14:51.160Z,15.83
2022-10-18T01:17:44.519Z,15.88
2022-10-18T01:20:23.027Z,15.76
2022-10-18T01:23:13.652Z,15.83
2022-10-18T01:26:05.445Z,15.88
2022-10-18T01:28:56.771Z,15.77
2022-10-18T01:32:00.573Z,15.74
2022-10-18T01:34:31.512Z,15.79
2022-10-18T01:37:01.206Z,15.84
2022-10-18T01:39:32.976Z,15.80
2022-10-18T01:42:02.788Z,15.80
2022-10-18T01:44:32.920Z,15.82
2022-10-18T01:46:59.933Z,15.81
2022-10-18T01:49:26.727Z,15.94
2022-10-18T01:51:53.643Z,15.93
2022-10-18T01:54:30.968Z,15.99
2022-10-18T01:57:07.122Z,15.93
2022-10-18T02:00:19.089Z,15.83
2022-10-18T02:02:53.721Z,15.78
2022-10-18T02:05:43.787Z,15.93
2022-10-18T02:08:25.451Z,16.02
2022-10-18T02:10:57.692Z,16.03
2022-10-18T02:13:29.604Z,15.95
2022-10-18T02:16:03.930Z,15.88
2022-10-18T02:18:41.357Z,15.85
2022-10-18T02:21:11.439Z,15.92
2022-10-18T02:23:38.834Z,15.83
2022-10-18T02:26:06.270Z,15.42
2022-10-18T02:28:32.741Z,15.19
2022-10-18T02:31:02.959Z,15.44
2022-10-18T02:33:46.042Z,15.49
2022-10-18T02:36:27.388Z,15.10
2022-10-18T02:39:01.330Z,14.96
2022-10-18T02:41:28.114Z,15.01
2022-10-18T02:43:54.572Z,15.11
2022-10-18T02:46:21.326Z,15.26
2022-10-18T02:48:48.006Z,15.50
2022-10-18T02:51:14.504Z,15.63
2022-10-18T02:53:41.202Z,15.74
2022-10-18T02:56:08.082Z,15.61
2022-10-18T02:58:34.577Z,15.61
2022-10-18T03:01:01.038Z,15.71
2022-10-18T03:03:27.442Z,15.80
2022-10-18T03:05:53.803Z,15.79
2022-10-18T03:08:20.194Z,15.70
2022-10-18T03:10:47.035Z,15.62
2022-10-18T03:13:13.812Z,15.66
2022-10-18T03:15:40.251Z,15.70
2022-10-18T03:18:06.615Z,15.63
2022-10-18T03:20:34.236Z,15.57
2022-10-18T03:23:00.797Z,15.36
2022-10-18T03:25:27.186Z,15.39
2022-10-18T03:27:53.758Z,15.49
2022-10-18T03:30:20.206Z,15.70
2022-10-18T03:32:46.659Z,15.80
2022-10-18T03:35:13.119Z,15.83
2022-10-18T03:37:39.538Z,15.88
2022-10-18T03:40:06.732Z,15.95
2022-10-18T03:42:33.251Z,15.90
2022-10-18T03:45:00.013Z,16.02
2022-10-18T03:47:26.400Z,16.01
2022-10-18T03:49:56.254Z,16.02
2022-10-18T03:52:23.786Z,16.04
2022-10-18T03:54:50.225Z,16.08
2022-10-18T03:57:16.691Z,16.09
2022-10-18T03:59:43.446Z,16.09
2022-10-18T04:02:10.063Z,16.11
2022-10-18T04:04:36.470Z,16.09
2022-10-18T04:07:02.891Z,15.98
2022-10-18T04:09:29.279Z,15.94
2022-10-18T04:11:55.812Z,15.93
2022-10-18T04:14:22.261Z,15.95
2022-10-18T04:16:48.746Z,16.00
2022-10-18T04:19:15.318Z,16.03
2022-10-18T04:21:41.817Z,16.13
2022-10-18T04:24:08.225Z,16.12
2022-10-18T04:26:34.623Z,16.03
2022-10-18T04:29:01.075Z,16.07
2022-10-18T04:31:27.517Z,16.15
2022-10-18T04:33:54.145Z,16.17
2022-10-18T04:36:20.633Z,16.20
2022-10-18T04:38:47.006Z,16.13
2022-10-18T04:41:13.414Z,15.95
2022-10-18T04:43:39.786Z,15.67
2022-10-18T04:46:06.494Z,15.49
2022-10-18T04:48:32.865Z,15.36
2022-10-18T04:50:59.267Z,15.40
2022-10-18T04:53:25.783Z,15.59
2022-10-18T04:55:52.241Z,15.75
2022-10-18T04:58:18.850Z,15.73
2022-10-18T05:00:47.522Z,15.46
2022-10-18T05:03:14.743Z,15.38
2022-10-18T05:06:00.145Z,15.54
2022-10-18T05:08:27.705Z,15.67
2022-10-18T05:10:54.385Z,15.74
2022-10-18T05:13:20.823Z,15.81
2022-10-18T05:15:47.543Z,15.78
2022-10-18T05:18:13.980Z,15.66
2022-10-18T05:20:40.489Z,15.68
2022-10-18T05:23:10.605Z,15.76
2022-10-18T05:25:40.913Z,15.81
2022-10-18T05:28:11.126Z,15.88
2022-10-18T05:30:47.861Z,15.89
2022-10-18T05:33:14.387Z,15.93
2022-10-18T05:35:40.795Z,15.90
2022-10-18T05:38:07.351Z,15.97
2022-10-18T05:40:34.106Z,16.02
2022-10-18T05:43:00.468Z,16.00
2022-10-18T05:45:26.844Z,16.01
2022-10-18T05:47:54.114Z,16.02
2022-10-18T05:50:20.786Z,16.04
2022-10-18T05:52:47.261Z,16.06
2022-10-18T05:55:13.773Z,16.08
2022-10-18T05:57:40.271Z,16.06
2022-10-18T06:00:07.242Z,16.06
2022-10-18T06:02:33.703Z,16.10
2022-10-18T06:05:00.092Z,16.06
2022-10-18T06:07:26.449Z,16.03
2022-10-18T06:09:52.841Z,16.04
2022-10-18T06:12:19.287Z,16.03
2022-10-18T06:14:45.830Z,16.03
2022-10-18T06:17:12.302Z,16.03
2022-10-18T06:19:38.934Z,16.00
2022-10-18T06:22:05.321Z,15.99
2022-10-18T06:24:31.772Z,15.94
2022-10-18T06:26:58.347Z,15.99
2022-10-18T06:29:24.741Z,16.03
2022-10-18T06:31:51.107Z,16.04
2022-10-18T06:34:17.527Z,15.97
2022-10-18T06:36:43.941Z,15.83
2022-10-18T06:39:10.593Z,15.90
2022-10-18T06:41:37.093Z,16.01
2022-10-18T06:44:13.306Z,15.89
2022-10-18T06:46:44.558Z,16.01
2022-10-18T06:49:13.107Z,16.09
2022-10-18T06:51:43.341Z,15.90
2022-10-18T06:54:18.724Z,15.90
2022-10-18T06:56:45.616Z,15.64
2022-10-18T06:59:12.220Z,15.58
2022-10-18T07:01:38.816Z,15.53
2022-10-18T07:04:05.313Z,15.43
2022-10-18T07:06:31.766Z,15.64
2022-10-18T07:08:58.283Z,15.79
2022-10-18T07:11:26.338Z,15.95
2022-10-18T07:13:54.711Z,16.05
2022-10-18T07:16:21.529Z,16.01
2022-10-18T07:18:50.453Z,15.97
2022-10-18T07:21:22.344Z,16.05
2022-10-18T07:23:49.806Z,16.12
2022-10-18T07:26:23.782Z,16.20
2022-10-18T07:28:59.081Z,16.23
2022-10-18T07:31:25.948Z,16.22
2022-10-18T07:33:52.535Z,16.25
2022-10-18T07:36:20.967Z,16.28
2022-10-18T07:38:47.746Z,16.35
2022-10-18T07:41:14.626Z,16.45
2022-10-18T07:43:46.900Z,16.53
2022-10-18T07:46:14.453Z,16.57
2022-10-18T07:48:41.376Z,16.66
2022-10-18T07:51:08.520Z,16.74
2022-10-18T07:53:35.128Z,16.44
2022-10-18T07:56:08.729Z,16.53
2022-10-18T07:58:36.277Z,16.64
2022-10-18T08:01:04.705Z,16.58
2022-10-18T08:03:31.628Z,16.53
2022-10-18T08:05:58.029Z,16.71
2022-10-18T08:08:25.344Z,16.53
2022-10-18T08:10:52.345Z,16.36
2022-10-18T08:13:19.291Z,16.10
2022-10-18T08:15:46.159Z,16.44
2022-10-18T08:18:13.315Z,16.65
2022-10-18T08:20:44.837Z,16.74
2022-10-18T08:23:11.753Z,16.84
2022-10-18T08:25:38.380Z,16.84
2022-10-18T08:28:05.134Z,16.84
2022-10-18T08:30:31.695Z,16.89
2022-10-18T08:32:58.268Z,16.98
2022-10-18T08:35:24.736Z,17.09
2022-10-18T08:37:51.305Z,17.26
2022-10-18T08:40:17.740Z,17.35
2022-10-18T08:42:52.742Z,17.58
2022-10-18T08:45:37.518Z,17.62
2022-10-18T08:48:07.836Z,17.78
2022-10-18T08:50:37.697Z,17.81
2022-10-18T08:53:25.201Z,17.77
2022-10-18T08:56:03.774Z,17.70
2022-10-18T08:58:32.183Z,17.70
2022-10-18T09:01:11.775Z,17.63
2022-10-18T09:03:54.074Z,17.57
2022-10-18T09:06:45.337Z,17.57
2022-10-18T09:09:23.643Z,17.52
2022-10-18T09:12:07.699Z,17.53
2022-10-18T09:15:21.699Z,17.60
2022-10-18T09:18:14.041Z,17.73
2022-10-18T09:20:46.268Z,17.83
2022-10-18T09:23:22.883Z,17.90
2022-10-18T09:25:57.455Z,18.01
2022-10-18T09:28:51.704Z,18.16
2022-10-18T09:31:41.027Z,18.13
2022-10-18T09:34:19.354Z,18.00
2022-10-18T09:36:47.368Z,17.93
2022-10-18T09:39:18.567Z,17.88
2022-10-18T09:41:48.494Z,17.89
2022-10-18T09:44:23.398Z,17.86
2022-10-18T09:46:58.805Z,17.99
2022-10-18T09:49:36.625Z,18.22
2022-10-18T09:52:08.950Z,18.39
2022-10-18T09:54:43.645Z,18.61
2022-10-18T09:57:22.002Z,18.79
2022-10-18T09:59:50.574Z,18.93
2022-10-18T10:02:22.523Z,19.01
2022-10-18T10:04:50.217Z,19.05
2022-10-18T10:07:34.866Z,19.13
2022-10-18T10:10:16.675Z,19.41
2022-10-18T10:12:46.105Z,19.54
2022-10-18T10:15:19.436Z,19.71
2022-10-18T10:18:17.604Z,19.74
2022-10-18T10:20:45.581Z,19.64
2022-10-18T10:23:23.301Z,19.49
2022-10-18T10:25:55.219Z,19.48
2022-10-18T10:28:31.102Z,19.57
2022-10-18T10:31:33.908Z,19.77
2022-10-18T10:34:03.310Z,20.21
2022-10-18T10:36:35.006Z,20.63
2022-10-18T10:39:07.859Z,20.80
2022-10-18T10:41:34.887Z,20.83
2022-10-18T10:44:04.087Z,20.67
2022-10-18T10:46:36.483Z,20.56
2022-10-18T10:49:35.052Z,20.25
2022-10-18T10:52:08.802Z,20.20
2022-10-18T10:54:50.399Z,20.10
2022-10-18T10:57:24.580Z,20.01
2022-10-18T10:59:53.945Z,20.06
2022-10-18T11:02:22.121Z,20.24
2022-10-18T11:04:50.858Z,20.44
2022-10-18T11:07:26.335Z,20.53
2022-10-18T11:10:15.298Z,20.58
2022-10-18T11:12:46.981Z,20.51
2022-10-18T11:15:28.627Z,20.73
2022-10-18T11:18:22.301Z,20.96
2022-10-18T11:21:11.388Z,21.11
2022-10-18T11:23:41.077Z,21.32
2022-10-18T11:26:07.427Z,21.87
2022-10-18T11:28:36.848Z,22.74
2022-10-18T11:31:26.737Z,22.80
2022-10-18T11:34:11.646Z,22.79
2022-10-18T11:36:54.590Z,23.12
2022-10-18T11:39:50.086Z,22.76
2022-10-18T11:42:23.086Z,22.20
2022-10-18T11:44:52.134Z,21.92
2022-10-18T11:47:37.033Z,21.81
2022-10-18T11:50:26.108Z,22.23
2022-10-18T11:53:04.865Z,22.63
2022-10-18T11:56:05.271Z,22.26
2022-10-18T11:58:55.361Z,21.95
2022-10-18T12:01:36.115Z,21.50
2022-10-18T12:04:07.186Z,21.10
2022-10-18T12:06:37.691Z,20.99
2022-10-18T12:09:13.237Z,21.01
2022-10-18T12:11:54.865Z,20.91
2022-10-18T12:14:38.725Z,21.00
2022-10-18T12:17:40.757Z,21.08
2022-10-18T12:20:14.761Z,21.14
2022-10-18T12:23:10.107Z,21.10
2022-10-18T12:25:40.727Z,20.77
2022-10-18T12:28:28.485Z,20.58
2022-10-18T12:31:25.539Z,20.37
2022-10-18T12:33:58.324Z,20.18
2022-10-18T12:36:49.746Z,20.12
2022-10-18T12:39:38.982Z,20.15
2022-10-18T12:42:25.738Z,20.32
2022-10-18T12:45:27.715Z,20.46
2022-10-18T12:47:58.759Z,20.69
2022-10-18T12:50:37.064Z,20.83
2022-10-18T12:53:12.400Z,20.96
2022-10-18T12:55:40.935Z,20.97
2022-10-18T12:58:13.120Z,20.99
2022-10-18T13:00:41.538Z,20.94
2022-10-18T13:03:14.318Z,21.00
2022-10-18T13:05:55.054Z,21.06
2022-10-18T13:08:28.124Z,21.03
2022-10-18T13:11:12.827Z,21.15
2022-10-18T13:14:06.719Z,21.32
2022-10-18T13:16:57.330Z,21.51
2022-10-18T13:19:29.377Z,21.68
2022-10-18T13:22:33.064Z,23.27
2022-10-18T13:25:14.925Z,25.33
2022-10-18T13:27:53.301Z,24.97
2022-10-18T13:30:32.046Z,24.27
2022-10-18T13:33:22.731Z,23.54
2022-10-18T13:36:01.775Z,22.92
2022-10-18T13:38:42.000Z,22.44
2022-10-18T13:41:12.472Z,22.34
2022-10-18T13:43:59.438Z,22.59
2022-10-18T13:46:34.976Z,22.61
2022-10-18T13:49:29.344Z,22.50
2022-10-18T13:52:07.846Z,22.77
2022-10-18T13:55:31.063Z,22.85
2022-10-18T13:58:21.551Z,22.95
2022-10-18T14:01:14.275Z,22.90
2022-10-18T14:04:01.948Z,22.77
2022-10-18T14:06:36.237Z,22.68
2022-10-18T14:09:46.532Z,22.66
2022-10-18T14:12:28.747Z,22.89
2022-10-18T14:15:02.515Z,22.79
2022-10-18T14:17:53.045Z,22.73
2022-10-18T14:20:29.940Z,22.52
2022-10-18T14:23:05.020Z,22.18
2022-10-18T14:25:37.940Z,22.13
2022-10-18T14:28:12.249Z,22.09
2022-10-18T14:30:59.619Z,21.97
2022-10-18T14:33:38.231Z,21.70
2022-10-18T14:36:22.004Z,21.55
2022-10-18T14:39:00.267Z,21.43
2022-10-18T14:41:30.075Z,21.04
2022-10-18T14:44:11.501Z,20.82
2022-10-18T14:46:48.051Z,20.61
2022-10-18T14:49:15.544Z,20.35
2022-10-18T14:51:45.308Z,20.15
2022-10-18T14:54:31.565Z,20.13
2022-10-18T14:56:59.733Z,19.96
2022-10-18T14:59:29.444Z,20.30
2022-10-18T15:02:00.018Z,20.45
2022-10-18T15:04:34.752Z,20.30
2022-10-18T15:07:07.398Z,20.49
2022-10-18T15:09:37.126Z,20.44
2022-10-18T15:12:06.351Z,20.37
2022-10-18T15:14:34.026Z,20.13
2022-10-18T15:17:07.411Z,20.01
2022-10-18T15:19:36.434Z,19.95
2022-10-18T15:22:30.958Z,19.78
2022-10-18T15:25:14.719Z,19.62
2022-10-18T15:27:45.118Z,19.51
2022-10-18T15:30:22.733Z,19.31
2022-10-18T15:33:01.339Z,18.96
2022-10-18T15:35:31.505Z,18.87
2022-10-18T15:38:13.537Z,18.86
2022-10-18T15:40:41.205Z,18.92
2022-10-18T15:43:23.095Z,18.92
2022-10-18T15:46:29.019Z,18.30
2022-10-18T15:49:18.451Z,18.27
2022-10-18T15:51:49.266Z,18.23
2022-10-18T15:54:19.467Z,18.12
2022-10-18T15:56:46.234Z,17.90
2022-10-18T15:59:25.255Z,17.82
2022-10-18T16:01:51.884Z,17.81
2022-10-18T16:04:30.004Z,17.73
2022-10-18T16:06:57.968Z,17.63
2022-10-18T16:09:27.295Z,17.53
2022-10-18T16:11:57.276Z,17.44
2022-10-18T16:14:27.238Z,17.18
2022-10-18T16:17:02.325Z,17.10
2022-10-18T16:19:29.209Z,17.00
2022-10-18T16:21:55.772Z,16.90
2022-10-18T16:24:22.856Z,16.81
2022-10-18T16:26:50.039Z,16.28
2022-10-18T16:29:22.403Z,16.23
2022-10-18T16:31:50.753Z,16.19
2022-10-18T16:34:18.133Z,16.06
2022-10-18T16:36:45.187Z,16.02
2022-10-18T16:39:19.648Z,15.97
2022-10-18T16:41:46.967Z,15.89
2022-10-18T16:44:14.166Z,15.85
2022-10-18T16:46:41.159Z,15.73
2022-10-18T16:49:07.688Z,15.50
2022-10-18T16:51:34.138Z,15.47
2022-10-18T16:54:00.615Z,15.46
2022-10-18T16:56:33.270Z,15.49
2022-10-18T16:59:00.289Z,15.40
2022-10-18T17:01:26.972Z,15.30
2022-10-18T17:03:54.142Z,15.23
2022-10-18T17:06:24.802Z,15.22
2022-10-18T17:08:52.177Z,15.15
2022-10-18T17:11:20.968Z,15.20
2022-10-18T17:13:47.514Z,15.23
2022-10-18T17:19:02.980Z,15.33
2022-10-18T17:21:30.630Z,15.36
2022-10-18T17:24:04.399Z,15.24
2022-10-18T17:26:31.423Z,15.23
2022-10-18T17:29:01.084Z,15.23
2022-10-18T17:31:28.866Z,15.25
2022-10-18T17:33:55.494Z,15.28
2022-10-18T17:36:22.491Z,15.29
2022-10-18T17:38:52.479Z,15.25
2022-10-18T17:41:19.233Z,15.15
2022-10-18T17:43:45.784Z,15.02
2022-10-18T17:46:14.137Z,14.80
2022-10-18T17:48:41.706Z,14.81
2022-10-18T17:51:10.174Z,14.78
2022-10-18T17:53:36.885Z,14.81
2022-10-18T17:56:04.470Z,14.68
2022-10-18T17:58:31.372Z,14.51
2022-10-18T18:00:59.649Z,14.48
2022-10-18T18:03:26.131Z,14.40
2022-10-18T18:05:52.527Z,14.41
2022-10-18T18:08:18.888Z,14.36
2022-10-18T18:10:45.337Z,14.32
2022-10-18T18:13:15.021Z,14.22
2022-10-18T18:15:44.011Z,14.11
2022-10-18T18:18:10.403Z,14.04
2022-10-18T18:20:36.816Z,14.03
2022-10-18T18:23:03.249Z,13.97
2022-10-18T18:25:29.709Z,13.89
2022-10-18T18:27:56.126Z,13.80
2022-10-18T18:30:23.066Z,13.76
2022-10-18T18:32:49.500Z,13.64
2022-10-18T18:35:16.046Z,13.61
2022-10-18T18:37:42.525Z,13.61
2022-10-18T18:40:09.417Z,13.64
2022-10-18T18:42:36.072Z,13.55
2022-10-18T18:45:02.992Z,13.50
2022-10-18T18:47:29.442Z,13.43
2022-10-18T18:49:55.821Z,13.47
2022-10-18T18:52:22.197Z,13.38
2022-10-18T18:54:48.676Z,13.38
2022-10-18T18:57:15.092Z,13.34
2022-10-18T18:59:41.481Z,13.28
2022-10-18T19:02:09.721Z,13.21
2022-10-18T19:04:36.461Z,13.24
2022-10-18T19:07:02.928Z,13.20
2022-10-18T19:09:29.360Z,13.14
2022-10-18T19:11:56.544Z,13.12
2022-10-18T19:14:24.778Z,13.13
2022-10-18T19:16:58.718Z,13.16
2022-10-18T19:19:27.578Z,13.18
2022-10-18T19:21:56.888Z,13.33
2022-10-18T19:24:25.348Z,13.51
2022-10-18T19:26:54.706Z,13.48
2022-10-18T19:29:27.757Z,13.37
2022-10-18T19:31:56.554Z,13.38
2022-10-18T19:34:24.573Z,13.39
2022-10-18T19:36:51.845Z,13.44
2022-10-18T19:39:19.604Z,13.50
2022-10-18T19:41:51.604Z,13.50
2022-10-18T19:44:19.333Z,13.42
2022-10-18T19:46:46.469Z,13.37
2022-10-18T19:49:12.933Z,13.38
2022-10-18T19:51:39.350Z,13.37
2022-10-18T19:54:05.861Z,13.35
2022-10-18T19:56:32.304Z,13.33
2022-10-18T19:58:59.625Z,13.27
2022-10-18T20:01:27.670Z,13.25
2022-10-18T20:03:54.468Z,13.21
2022-10-18T20:06:21.248Z,13.09
2022-10-18T20:08:48.215Z,13.05
2022-10-18T20:11:18.092Z,13.00
2022-10-18T20:13:44.538Z,12.98
2022-10-18T20:16:13.166Z,12.98
2022-10-18T20:18:40.092Z,12.89
2022-10-18T20:21:11.247Z,12.67
2022-10-18T20:23:40.164Z,12.47
2022-10-18T20:26:18.119Z,12.59
2022-10-18T20:28:49.086Z,12.66
2022-10-18T20:31:18.037Z,12.77
2022-10-18T20:33:45.786Z,12.76
2022-10-18T20:36:18.159Z,12.77
2022-10-18T20:38:46.623Z,12.79
2022-10-18T20:41:16.366Z,12.79
2022-10-18T20:43:43.766Z,12.74
2022-10-18T20:46:11.057Z,12.80
2022-10-18T20:48:38.693Z,12.77
2022-10-18T20:51:07.982Z,12.80
2022-10-18T20:53:38.474Z,12.79
2022-10-18T20:56:09.822Z,12.80
2022-10-18T20:58:38.456Z,12.84
2022-10-18T21:01:16.574Z,12.87
2022-10-18T21:03:44.925Z,12.88
2022-10-18T21:06:16.860Z,12.87
2022-10-18T21:08:44.000Z,12.84
2022-10-18T21:11:11.552Z,12.89
2022-10-18T21:13:38.605Z,12.97
2022-10-18T21:16:05.790Z,12.95
2022-10-18T21:18:34.479Z,12.95
2022-10-18T21:21:28.475Z,12.95
2022-10-18T21:23:54.968Z,12.98
2022-10-18T21:26:24.343Z,13.02
2022-10-18T21:28:52.892Z,13.05
2022-10-18T21:31:22.046Z,13.08
2022-10-18T21:33:55.788Z,13.06
2022-10-18T21:36:23.382Z,13.00
2022-10-18T21:38:50.303Z,12.92
2022-10-18T21:41:18.428Z,12.85
2022-10-18T21:43:48.930Z,12.86
2022-10-18T21:46:17.151Z,12.93
2022-10-18T21:48:45.774Z,12.99
2022-10-18T21:51:14.249Z,13.00
2022-10-18T21:53:45.531Z,12.97
2022-10-18T21:56:18.213Z,12.97
2022-10-18T21:58:45.634Z,12.83
2022-10-18T22:01:18.055Z,12.92
2022-10-18T22:03:45.344Z,13.02
2022-10-18T22:06:14.663Z,13.05
2022-10-18T22:08:42.959Z,12.74
2022-10-18T22:11:09.932Z,12.71
2022-10-18T22:13:36.376Z,12.66
2022-10-18T22:16:05.670Z,12.74
2022-10-18T22:18:32.912Z,12.61
2022-10-18T22:21:02.192Z,12.67
2022-10-18T22:23:33.580Z,12.75
2022-10-18T22:26:15.439Z,12.86
2022-10-18T22:28:43.781Z,12.85
2022-10-18T22:31:18.406Z,12.91
2022-10-18T22:33:45.366Z,12.96
2022-10-18T22:36:12.750Z,13.02
2022-10-18T22:38:39.706Z,12.94
2022-10-18T22:41:08.231Z,12.88
2022-10-18T22:43:38.094Z,12.89
2022-10-18T22:46:07.026Z,12.86
2022-10-18T22:48:36.673Z,12.87
2022-10-18T22:51:03.905Z,12.84
2022-10-18T22:53:31.261Z,12.83
2022-10-18T22:55:57.825Z,12.74
2022-10-18T22:58:26.353Z,12.62
2022-10-18T23:01:09.969Z,12.42
2022-10-18T23:03:37.146Z,12.33
2022-10-18T23:06:04.628Z,12.14
2022-10-18T23:08:32.105Z,12.02
2022-10-18T23:10:59.853Z,11.84
2022-10-18T23:13:27.441Z,11.92
2022-10-18T23:16:04.538Z,11.88
2022-10-18T23:18:32.314Z,11.87
2022-10-18T23:21:07.371Z,11.68
2022-10-18T23:23:35.758Z,11.62
2022-10-18T23:26:04.333Z,11.62
2022-10-18T23:28:33.727Z,11.71
2022-10-18T23:31:05.467Z,11.72
2022-10-18T23:33:31.911Z,11.56
2022-10-18T23:36:01.689Z,11.56
2022-10-18T23:38:32.546Z,11.47
2022-10-18T23:40:59.008Z,11.39
2022-10-18T23:43:25.612Z,11.30
2022-10-18T23:45:53.966Z,11.24
2022-10-18T23:48:20.371Z,11.06
2022-10-18T23:50:46.830Z,11.07
2022-10-18T23:53:13.433Z,11.16
2022-10-18T23:55:39.779Z,11.15
2022-10-18T23:58:06.221Z,11.08
